Terminal Aerodrome Forecast
Issued by NWS Amarillo, TX

Home | Current Version | Previous Version | Text Only | Print | Product List | Glossary On
Versions: 1 2 3 4 5 6 7 8 9 10 11 12 13 14 15 16
000
FTUS44 KAMA 040520
TAFDHT
TAF
KDHT 040520Z 0406/0506 17013KT P6SM BKN200
     FM041000 21010KT P6SM SCT100 BKN200
     FM041600 20015G24KT P6SM BKN100
     FM050100 17014KT P6SM BKN200=

USA.gov is the U.S. government's official web portal to all federal, state and local government web resources and services.